createdAt,value
2018-05-16T00:00:42.765Z,1008.59
2018-05-16T00:01:42.831Z,1008.58
2018-05-16T00:03:35.831Z,1008.58
2018-05-16T00:04:35.891Z,1008.62
2018-05-16T00:06:28.885Z,1008.63
2018-05-16T00:07:28.952Z,1008.63
2018-05-16T00:09:21.954Z,1008.66
2018-05-16T00:10:22.013Z,1008.63
2018-05-16T00:12:15.015Z,1008.63
2018-05-16T00:13:15.074Z,1008.67
2018-05-16T00:15:08.079Z,1008.68
2018-05-16T00:16:08.146Z,1008.64
2018-05-16T00:18:01.659Z,1008.77
2018-05-16T00:19:01.716Z,1008.80
2018-05-16T00:20:54.705Z,1008.81
2018-05-16T00:21:54.769Z,1008.80
2018-05-16T00:23:47.772Z,1008.78
2018-05-16T00:24:47.828Z,1008.79
2018-05-16T00:26:40.828Z,1008.86
2018-05-16T00:27:40.884Z,1008.91
2018-05-16T00:29:33.903Z,1008.88
2018-05-16T00:30:33.966Z,1008.87
2018-05-16T00:32:26.963Z,1008.85
2018-05-16T00:33:27.031Z,1008.86
2018-05-16T00:35:20.027Z,1008.84
2018-05-16T00:36:20.087Z,1008.89
2018-05-16T00:38:13.091Z,1008.93
2018-05-16T00:39:13.147Z,1008.92
2018-05-16T00:41:06.146Z,1008.87
2018-05-16T00:42:06.213Z,1008.86
2018-05-16T00:43:59.215Z,1008.81
2018-05-16T00:44:59.264Z,1008.83
2018-05-16T00:46:52.260Z,1008.84
2018-05-16T00:47:52.323Z,1008.87
2018-05-16T00:49:45.325Z,1008.91
2018-05-16T00:50:45.387Z,1008.94
2018-05-16T00:52:38.383Z,1008.94
2018-05-16T00:53:38.447Z,1008.94
2018-05-16T00:55:31.448Z,1008.95
2018-05-16T00:56:31.507Z,1008.94
2018-05-16T00:58:24.503Z,1009.03
2018-05-16T00:59:24.557Z,1009.03
2018-05-16T01:01:17.557Z,1008.99
2018-05-16T01:02:17.623Z,1008.92
2018-05-16T01:04:10.624Z,1008.92
2018-05-16T01:05:10.686Z,1008.93
2018-05-16T01:07:03.682Z,1008.93
2018-05-16T01:08:03.743Z,1008.92
2018-05-16T01:09:56.743Z,1008.98
2018-05-16T01:10:56.804Z,1009.00
2018-05-16T01:12:49.804Z,1008.98
2018-05-16T01:13:49.866Z,1008.98
2018-05-16T01:15:42.860Z,1008.98
2018-05-16T01:16:42.919Z,1008.98
2018-05-16T01:18:36.420Z,1008.96
2018-05-16T01:19:36.484Z,1008.95
2018-05-16T01:21:29.483Z,1008.92
2018-05-16T01:22:29.548Z,1008.90
2018-05-16T01:24:22.648Z,1008.88
2018-05-16T01:25:22.599Z,1008.84
2018-05-16T01:27:15.590Z,1008.81
2018-05-16T01:28:15.656Z,1008.84
2018-05-16T01:30:08.654Z,1008.87
2018-05-16T01:31:08.712Z,1008.77
2018-05-16T01:33:01.708Z,1008.68
2018-05-16T01:34:01.780Z,1008.66
2018-05-16T01:35:54.767Z,1008.62
2018-05-16T01:36:54.821Z,1008.60
2018-05-16T01:38:47.820Z,1008.61
2018-05-16T01:39:47.884Z,1008.64
2018-05-16T01:41:40.882Z,1008.68
2018-05-16T01:42:40.940Z,1008.72
2018-05-16T01:44:33.927Z,1008.74
2018-05-16T01:45:33.995Z,1008.68
2018-05-16T01:47:26.994Z,1008.60
2018-05-16T01:48:27.046Z,1008.63
2018-05-16T01:50:20.051Z,1008.71
2018-05-16T01:52:33.062Z,1008.68
2018-05-16T01:53:33.120Z,1008.66
2018-05-16T01:55:26.131Z,1008.57
2018-05-16T01:56:26.187Z,1008.54
2018-05-16T01:58:19.178Z,1008.48
2018-05-16T01:59:19.243Z,1008.48
2018-05-16T02:01:12.243Z,1008.43
2018-05-16T02:02:12.297Z,1008.44
2018-05-16T02:04:05.299Z,1008.43
2018-05-16T02:05:05.354Z,1008.44
2018-05-16T02:06:58.357Z,1008.44
2018-05-16T02:07:58.413Z,1008.45
2018-05-16T02:09:51.407Z,1008.47
2018-05-16T02:10:51.472Z,1008.43
2018-05-16T02:12:44.472Z,1008.46
2018-05-16T02:13:44.528Z,1008.44
2018-05-16T02:15:37.525Z,1008.47
2018-05-16T02:16:37.591Z,1008.46
2018-05-16T02:18:31.099Z,1008.43
2018-05-16T02:19:31.153Z,1008.40
2018-05-16T02:21:24.178Z,1008.43
2018-05-16T02:22:24.214Z,1008.44
2018-05-16T02:24:17.203Z,1008.47
2018-05-16T02:25:17.266Z,1008.49
2018-05-16T02:27:10.266Z,1008.55
2018-05-16T02:28:10.322Z,1008.52
2018-05-16T02:30:03.319Z,1008.52
2018-05-16T02:31:03.384Z,1008.57
2018-05-16T02:32:56.390Z,1008.55
2018-05-16T02:33:56.446Z,1008.57
2018-05-16T02:35:49.441Z,1008.55
2018-05-16T02:36:49.501Z,1008.54
2018-05-16T02:38:42.500Z,1008.52
2018-05-16T02:39:42.555Z,1008.53
2018-05-16T02:41:35.562Z,1008.53
2018-05-16T02:42:35.680Z,1008.54
2018-05-16T02:44:28.608Z,1008.54
2018-05-16T02:45:28.672Z,1008.56
2018-05-16T02:47:21.693Z,1008.54
2018-05-16T02:48:21.745Z,1008.56
2018-05-16T02:50:14.740Z,1008.60
2018-05-16T02:51:14.804Z,1008.58
2018-05-16T02:53:07.802Z,1008.57
2018-05-16T02:54:07.858Z,1008.60
2018-05-16T02:56:00.854Z,1008.62
2018-05-16T02:57:00.915Z,1008.63
2018-05-16T02:58:53.911Z,1008.65
2018-05-16T02:59:53.965Z,1008.66
2018-05-16T03:01:46.968Z,1008.65
2018-05-16T03:02:47.023Z,1008.63
2018-05-16T03:04:40.042Z,1008.69
2018-05-16T03:05:40.102Z,1008.70
2018-05-16T03:07:33.090Z,1008.70
2018-05-16T03:08:33.149Z,1008.70
2018-05-16T03:10:26.142Z,1008.70
2018-05-16T03:11:26.204Z,1008.76
2018-05-16T03:13:19.201Z,1008.74
2018-05-16T03:14:19.254Z,1008.80
2018-05-16T03:16:12.242Z,1008.81
2018-05-16T03:17:12.308Z,1008.76
2018-05-16T03:19:05.308Z,1008.81
2018-05-16T03:20:05.365Z,1008.81
2018-05-16T03:21:58.369Z,1008.83
2018-05-16T03:22:58.424Z,1008.86
2018-05-16T03:24:51.430Z,1008.91
2018-05-16T03:25:51.485Z,1008.87
2018-05-16T03:27:44.499Z,1008.88
2018-05-16T03:28:44.545Z,1008.90
2018-05-16T03:30:37.538Z,1008.92
2018-05-16T03:31:37.597Z,1008.92
2018-05-16T03:33:30.601Z,1008.92
2018-05-16T03:34:30.665Z,1008.97
2018-05-16T03:36:23.647Z,1008.95
2018-05-16T03:37:23.716Z,1008.94
2018-05-16T03:39:16.709Z,1008.96
2018-05-16T03:40:16.776Z,1008.98
2018-05-16T03:42:09.754Z,1008.96
2018-05-16T03:43:09.825Z,1008.99
2018-05-16T03:45:02.826Z,1008.99
2018-05-16T03:46:02.889Z,1008.99
2018-05-16T03:47:55.869Z,1008.97
2018-05-16T03:48:55.932Z,1008.95
2018-05-16T03:50:48.933Z,1009.00
2018-05-16T03:51:48.988Z,1008.99
2018-05-16T03:53:41.988Z,1009.00
2018-05-16T03:54:42.041Z,1009.00
2018-05-16T03:56:35.030Z,1009.04
2018-05-16T03:57:35.092Z,1009.02
2018-05-16T03:59:28.089Z,1009.05
2018-05-16T04:00:28.143Z,1009.08
2018-05-16T04:02:21.205Z,1009.07
2018-05-16T04:03:21.196Z,1009.06
2018-05-16T04:05:14.200Z,1008.98
2018-05-16T04:06:14.244Z,1009.02
2018-05-16T04:08:07.240Z,1009.00
2018-05-16T04:09:07.307Z,1008.97
2018-05-16T04:11:00.311Z,1008.95
2018-05-16T04:12:00.368Z,1008.98
2018-05-16T04:13:53.359Z,1008.96
2018-05-16T04:14:53.424Z,1009.04
2018-05-16T04:16:46.419Z,1009.03
2018-05-16T04:17:46.476Z,1009.04
2018-05-16T04:19:39.471Z,1009.03
2018-05-16T04:20:39.535Z,1009.03
2018-05-16T04:22:32.536Z,1009.08
2018-05-16T04:23:32.594Z,1009.13
2018-05-16T04:25:25.595Z,1009.10
2018-05-16T04:26:25.653Z,1009.08
2018-05-16T04:28:18.642Z,1009.04
2018-05-16T04:29:18.705Z,1009.09
2018-05-16T04:31:11.708Z,1009.09
2018-05-16T04:32:11.767Z,1009.08
2018-05-16T04:34:04.763Z,1009.10
2018-05-16T04:35:04.823Z,1009.11
2018-05-16T04:36:57.822Z,1009.15
2018-05-16T04:37:57.880Z,1009.20
2018-05-16T04:39:50.868Z,1009.26
2018-05-16T04:40:50.933Z,1009.24
2018-05-16T04:42:43.933Z,1009.25
2018-05-16T04:43:43.992Z,1009.27
2018-05-16T04:45:36.989Z,1009.26
2018-05-16T04:46:37.046Z,1009.32
2018-05-16T04:48:30.039Z,1009.32
2018-05-16T04:49:30.103Z,1009.31
2018-05-16T04:51:23.104Z,1009.29
2018-05-16T04:52:23.158Z,1009.29
2018-05-16T04:54:16.157Z,1009.25
2018-05-16T04:55:16.223Z,1009.22
2018-05-16T04:57:09.223Z,1009.26
2018-05-16T04:58:09.279Z,1009.26
2018-05-16T05:00:02.271Z,1009.27
2018-05-16T05:01:02.433Z,1009.31
2018-05-16T05:02:55.333Z,1009.31
2018-05-16T05:03:55.388Z,1009.27
2018-05-16T05:05:48.391Z,1009.32
2018-05-16T05:06:48.449Z,1009.29
2018-05-16T05:08:41.458Z,1009.30
2018-05-16T05:09:41.533Z,1009.25
2018-05-16T05:11:34.510Z,1009.26
2018-05-16T05:12:34.566Z,1009.28
2018-05-16T05:14:27.561Z,1009.22
2018-05-16T05:15:27.618Z,1009.21
2018-05-16T05:17:20.619Z,1009.20
2018-05-16T05:18:20.696Z,1009.24
2018-05-16T05:20:13.663Z,1009.24
2018-05-16T05:21:13.728Z,1009.25
2018-05-16T05:23:06.739Z,1009.26
2018-05-16T05:24:06.896Z,1009.30
2018-05-16T05:25:59.783Z,1009.32
2018-05-16T05:26:59.845Z,1009.34
2018-05-16T05:28:52.858Z,1009.32
2018-05-16T05:29:52.908Z,1009.30
2018-05-16T05:31:45.908Z,1009.32
2018-05-16T05:32:45.967Z,1009.32
2018-05-16T05:34:38.966Z,1009.32
2018-05-16T05:35:39.023Z,1009.28
2018-05-16T05:37:32.023Z,1009.27
2018-05-16T05:38:32.085Z,1009.27
2018-05-16T05:40:25.071Z,1009.36
2018-05-16T05:41:25.136Z,1009.36
2018-05-16T05:43:18.198Z,1009.43
2018-05-16T05:44:18.200Z,1009.47
2018-05-16T05:46:11.197Z,1009.51
2018-05-16T05:47:11.251Z,1009.53
2018-05-16T05:49:04.254Z,1009.54
2018-05-16T05:50:04.307Z,1009.59
2018-05-16T05:51:57.323Z,1009.61
2018-05-16T05:52:57.370Z,1009.61
2018-05-16T05:54:50.368Z,1009.67
2018-05-16T05:55:50.423Z,1009.66
2018-05-16T05:57:43.424Z,1009.72
2018-05-16T05:58:43.482Z,1009.73
2018-05-16T06:00:36.471Z,1009.78
2018-05-16T06:01:36.538Z,1009.85
2018-05-16T06:03:29.538Z,1009.82
2018-05-16T06:04:29.598Z,1009.82
2018-05-16T06:06:22.591Z,1009.83
2018-05-16T06:07:22.652Z,1009.80
2018-05-16T06:09:15.654Z,1009.82
2018-05-16T06:10:15.712Z,1009.91
2018-05-16T06:12:08.703Z,1009.95
2018-05-16T06:13:08.769Z,1009.90
2018-05-16T06:15:01.776Z,1009.94
2018-05-16T06:16:01.827Z,1010.08
2018-05-16T06:17:56.338Z,1010.09
2018-05-16T06:18:56.404Z,1010.04
2018-05-16T06:20:49.403Z,1010.07
2018-05-16T06:21:49.463Z,1009.82
2018-05-16T06:23:42.470Z,1009.84
2018-05-16T06:24:42.559Z,1009.92
2018-05-16T06:26:35.531Z,1009.85
2018-05-16T06:27:35.601Z,1009.86
2018-05-16T06:29:28.603Z,1009.92
2018-05-16T06:30:28.664Z,1009.93
2018-05-16T06:32:21.669Z,1009.95
2018-05-16T06:33:21.734Z,1010.00
2018-05-16T06:35:14.743Z,1010.06
2018-05-16T06:36:14.796Z,1010.35
2018-05-16T06:38:07.794Z,1010.33
2018-05-16T06:39:07.874Z,1010.27
2018-05-16T06:41:00.866Z,1010.37
2018-05-16T06:42:00.927Z,1010.43
2018-05-16T06:43:53.953Z,1010.45
2018-05-16T06:44:53.999Z,1010.45
2018-05-16T06:46:47.001Z,1010.42
2018-05-16T06:47:47.140Z,1010.60
2018-05-16T06:49:40.085Z,1010.77
2018-05-16T06:50:40.160Z,1010.67
2018-05-16T06:52:33.157Z,1010.59
2018-05-16T06:53:33.224Z,1010.48
2018-05-16T06:55:26.238Z,1010.59
2018-05-16T06:56:26.305Z,1010.61
2018-05-16T06:58:19.310Z,1010.59
2018-05-16T06:59:19.381Z,1010.65
2018-05-16T07:01:12.406Z,1010.78
2018-05-16T07:02:12.459Z,1010.74
2018-05-16T07:04:05.497Z,1010.63
2018-05-16T07:05:05.547Z,1010.64
2018-05-16T07:06:58.572Z,1010.54
2018-05-16T07:07:58.629Z,1010.33
2018-05-16T07:09:51.668Z,1010.29
2018-05-16T07:10:51.751Z,1010.26
2018-05-16T07:12:44.748Z,1010.20
2018-05-16T07:13:44.818Z,1010.17
2018-05-16T07:15:37.838Z,1010.13
2018-05-16T07:16:37.906Z,1010.12
2018-05-16T07:18:30.910Z,1010.08
2018-05-16T07:19:30.984Z,1010.09
2018-05-16T07:21:23.994Z,1010.14
2018-05-16T07:22:24.061Z,1010.12
2018-05-16T07:24:17.065Z,1010.22
2018-05-16T07:25:17.255Z,1010.20
2018-05-16T07:27:10.147Z,1010.25
2018-05-16T07:28:10.207Z,1010.31
2018-05-16T07:30:03.219Z,1010.38
2018-05-16T07:31:03.275Z,1010.38
2018-05-16T07:32:56.286Z,1010.43
2018-05-16T07:33:56.348Z,1010.45
2018-05-16T07:35:49.354Z,1010.41
2018-05-16T07:36:49.421Z,1010.40
2018-05-16T07:38:42.429Z,1010.43
2018-05-16T07:39:42.503Z,1010.46
2018-05-16T07:41:35.504Z,1010.40
2018-05-16T07:42:35.564Z,1010.36
2018-05-16T07:44:28.566Z,1010.44
2018-05-16T07:45:28.633Z,1010.48
2018-05-16T07:47:21.646Z,1010.47
2018-05-16T07:48:21.703Z,1010.47
2018-05-16T07:50:14.704Z,1010.49
2018-05-16T07:51:14.807Z,1010.53
2018-05-16T07:53:07.776Z,1010.54
2018-05-16T07:54:07.835Z,1010.56
2018-05-16T07:56:00.883Z,1010.56
2018-05-16T07:57:00.902Z,1010.56
2018-05-16T07:58:53.910Z,1010.61
2018-05-16T07:59:53.969Z,1010.64
2018-05-16T08:01:46.975Z,1010.61
2018-05-16T08:02:47.036Z,1010.67
2018-05-16T08:04:40.030Z,1010.71
2018-05-16T08:05:40.099Z,1010.75
2018-05-16T08:07:33.109Z,1010.78
2018-05-16T08:08:33.171Z,1010.81
2018-05-16T08:10:26.730Z,1010.79
2018-05-16T08:11:26.743Z,1010.81
2018-05-16T08:13:19.747Z,1010.81
2018-05-16T08:14:19.808Z,1010.79
2018-05-16T08:16:12.824Z,1010.83
2018-05-16T08:17:12.932Z,1010.84
2018-05-16T08:19:05.900Z,1010.90
2018-05-16T08:20:05.961Z,1010.92
2018-05-16T08:21:58.965Z,1010.91
2018-05-16T08:22:59.025Z,1010.89
2018-05-16T08:24:52.025Z,1010.87
2018-05-16T08:25:52.093Z,1010.87
2018-05-16T08:27:45.107Z,1010.79
2018-05-16T08:28:45.169Z,1010.81
2018-05-16T08:30:38.175Z,1010.82
2018-05-16T08:31:38.238Z,1010.78
2018-05-16T08:33:31.247Z,1010.78
2018-05-16T08:34:31.302Z,1010.77
2018-05-16T08:36:24.305Z,1010.75
2018-05-16T08:37:24.371Z,1010.80
2018-05-16T08:39:17.384Z,1010.74
2018-05-16T08:40:17.446Z,1010.71
2018-05-16T08:42:10.465Z,1010.72
2018-05-16T08:43:10.515Z,1010.71
2018-05-16T08:45:03.524Z,1010.79
2018-05-16T08:46:03.586Z,1010.78
2018-05-16T08:47:56.632Z,1010.86
2018-05-16T08:48:56.656Z,1010.88
2018-05-16T08:50:49.728Z,1010.91
2018-05-16T08:51:49.723Z,1010.86
2018-05-16T08:53:42.767Z,1010.82
2018-05-16T08:54:42.807Z,1010.78
2018-05-16T08:56:35.804Z,1010.77
2018-05-16T08:57:36.005Z,1010.80
2018-05-16T08:59:28.885Z,1010.76
2018-05-16T09:00:28.948Z,1010.77
2018-05-16T09:02:21.954Z,1010.69
2018-05-16T09:03:22.021Z,1010.71
2018-05-16T09:05:15.030Z,1010.74
2018-05-16T09:06:15.090Z,1010.72
2018-05-16T09:08:08.113Z,1010.75
2018-05-16T09:09:08.162Z,1010.75
2018-05-16T09:11:01.175Z,1010.71
2018-05-16T09:12:01.235Z,1010.70
2018-05-16T09:13:54.237Z,1010.70
2018-05-16T09:14:54.299Z,1010.72
2018-05-16T09:16:47.302Z,1010.76
2018-05-16T09:17:47.363Z,1010.72
2018-05-16T09:19:40.386Z,1010.75
2018-05-16T09:20:40.450Z,1010.73
2018-05-16T09:22:33.454Z,1010.74
2018-05-16T09:23:33.520Z,1010.75
2018-05-16T09:25:26.525Z,1010.72
2018-05-16T09:26:26.589Z,1010.76
2018-05-16T09:28:19.588Z,1010.74
2018-05-16T09:29:19.655Z,1010.69
2018-05-16T09:31:12.662Z,1010.71
2018-05-16T09:32:12.717Z,1010.70
2018-05-16T09:34:05.770Z,1010.67
2018-05-16T09:35:05.793Z,1010.73
2018-05-16T09:36:58.794Z,1010.70
2018-05-16T09:37:58.863Z,1010.68
2018-05-16T09:39:51.870Z,1010.59
2018-05-16T09:40:52.249Z,1010.55
2018-05-16T09:42:44.944Z,1010.53
2018-05-16T09:43:44.999Z,1010.47
2018-05-16T09:45:38.038Z,1010.48
2018-05-16T09:46:38.064Z,1010.54
2018-05-16T09:48:31.076Z,1010.59
2018-05-16T09:49:31.143Z,1010.61
2018-05-16T09:51:24.211Z,1010.64
2018-05-16T09:52:24.228Z,1010.66
2018-05-16T09:54:17.241Z,1010.68
2018-05-16T09:55:17.297Z,1010.66
2018-05-16T09:57:10.369Z,1010.69
2018-05-16T09:58:10.366Z,1010.69
2018-05-16T10:00:03.378Z,1010.72
2018-05-16T10:01:03.440Z,1010.71
2018-05-16T10:02:56.440Z,1010.73
2018-05-16T10:03:56.580Z,1010.69
2018-05-16T10:05:49.526Z,1010.73
2018-05-16T10:06:49.591Z,1010.71
2018-05-16T10:08:42.597Z,1010.74
2018-05-16T10:09:42.751Z,1010.76
2018-05-16T10:11:35.673Z,1010.81
2018-05-16T10:12:35.735Z,1010.79
2018-05-16T10:14:28.765Z,1010.77
2018-05-16T10:15:28.808Z,1010.78
2018-05-16T10:17:21.823Z,1010.79
2018-05-16T10:18:21.887Z,1010.79
2018-05-16T10:20:15.031Z,1010.82
2018-05-16T10:21:14.957Z,1010.83
2018-05-16T10:23:07.967Z,1010.90
2018-05-16T10:24:08.036Z,1010.91
2018-05-16T10:26:01.048Z,1010.93
2018-05-16T10:27:01.137Z,1010.91
2018-05-16T10:28:54.124Z,1010.92
2018-05-16T10:29:54.362Z,1010.92
2018-05-16T10:31:47.197Z,1010.92
2018-05-16T10:32:47.259Z,1010.94
2018-05-16T10:34:40.269Z,1010.91
2018-05-16T10:35:40.331Z,1010.98
2018-05-16T10:37:33.362Z,1010.99
2018-05-16T10:38:33.406Z,1010.99
2018-05-16T10:40:26.423Z,1010.94
2018-05-16T10:41:26.518Z,1010.94
2018-05-16T10:43:19.497Z,1010.93
2018-05-16T10:44:19.562Z,1010.89
2018-05-16T10:46:12.569Z,1010.89
2018-05-16T10:47:12.666Z,1010.86
2018-05-16T10:49:05.654Z,1010.85
2018-05-16T10:50:05.702Z,1010.86
2018-05-16T10:51:58.738Z,1010.84
2018-05-16T10:52:58.801Z,1010.85
2018-05-16T10:54:51.790Z,1010.84
2018-05-16T10:55:51.965Z,1010.87
2018-05-16T10:57:44.889Z,1010.86
2018-05-16T10:58:44.927Z,1010.88
2018-05-16T11:00:38.027Z,1010.83
2018-05-16T11:01:38.013Z,1010.84
2018-05-16T11:03:31.391Z,1010.82
2018-05-16T11:04:31.075Z,1010.81
2018-05-16T11:06:24.110Z,1010.86
2018-05-16T11:07:24.160Z,1010.87
2018-05-16T11:09:17.283Z,1010.82
2018-05-16T11:10:17.241Z,1010.82
2018-05-16T11:12:10.238Z,1010.77
2018-05-16T11:13:10.307Z,1010.80
2018-05-16T11:15:03.325Z,1010.77
2018-05-16T11:16:03.373Z,1010.75
2018-05-16T11:17:56.511Z,1010.71
2018-05-16T11:18:56.518Z,1010.75
2018-05-16T11:20:49.465Z,1010.73
2018-05-16T11:21:49.534Z,1010.74
2018-05-16T11:23:42.562Z,1010.72
2018-05-16T11:24:42.606Z,1010.73
2018-05-16T11:26:36.172Z,1010.70
2018-05-16T11:27:36.184Z,1010.71
2018-05-16T11:29:29.208Z,1010.69
2018-05-16T11:30:29.265Z,1010.69
2018-05-16T11:32:22.307Z,1010.64
2018-05-16T11:33:22.334Z,1010.68
2018-05-16T11:35:15.402Z,1010.67
2018-05-16T11:36:15.410Z,1010.67
2018-05-16T11:38:08.443Z,1010.65
2018-05-16T11:39:08.512Z,1010.69
2018-05-16T11:41:01.508Z,1010.70
2018-05-16T11:42:01.582Z,1010.71
2018-05-16T11:43:54.568Z,1010.72
2018-05-16T11:44:54.650Z,1010.74
2018-05-16T11:46:47.638Z,1010.75
2018-05-16T11:47:47.700Z,1010.73
2018-05-16T11:49:40.737Z,1010.77
2018-05-16T11:50:40.809Z,1010.81
2018-05-16T11:52:33.789Z,1010.81
2018-05-16T11:53:33.850Z,1010.81
2018-05-16T11:55:26.872Z,1010.89
2018-05-16T11:56:26.923Z,1010.87
2018-05-16T11:58:19.932Z,1010.89
2018-05-16T11:59:20.041Z,1010.83
2018-05-16T12:01:13.090Z,1010.80
2018-05-16T12:02:13.109Z,1010.83
2018-05-16T12:04:06.105Z,1010.81
2018-05-16T12:05:06.157Z,1010.87
2018-05-16T12:06:59.178Z,1010.81
2018-05-16T12:07:59.219Z,1010.86
2018-05-16T12:09:52.261Z,1010.86
2018-05-16T12:10:52.305Z,1010.83
2018-05-16T12:12:45.331Z,1010.81
2018-05-16T12:13:45.381Z,1010.80
2018-05-16T12:15:38.411Z,1010.76
2018-05-16T12:16:38.481Z,1010.71
2018-05-16T12:18:31.527Z,1010.75
2018-05-16T12:19:31.552Z,1010.74
2018-05-16T12:21:24.547Z,1010.76
2018-05-16T12:22:24.610Z,1010.75
2018-05-16T12:24:17.673Z,1010.71
2018-05-16T12:25:17.729Z,1010.70
2018-05-16T12:27:10.705Z,1010.71
2018-05-16T12:28:10.755Z,1010.68
2018-05-16T12:30:03.784Z,1010.71
2018-05-16T12:31:03.838Z,1010.75
2018-05-16T12:32:56.861Z,1010.74
2018-05-16T12:33:56.906Z,1010.79
2018-05-16T12:35:49.914Z,1010.80
2018-05-16T12:36:49.980Z,1010.76
2018-05-16T12:38:43.004Z,1010.78
2018-05-16T12:39:43.066Z,1010.77
2018-05-16T12:41:36.084Z,1010.78
2018-05-16T12:42:36.154Z,1010.80
2018-05-16T12:44:29.210Z,1010.74
2018-05-16T12:45:29.230Z,1010.78
2018-05-16T12:47:22.206Z,1010.79
2018-05-16T12:48:22.287Z,1010.79
2018-05-16T12:50:15.287Z,1010.81
2018-05-16T12:51:15.351Z,1010.75
2018-05-16T12:53:08.458Z,1010.77
2018-05-16T12:54:08.426Z,1010.73
2018-05-16T12:56:01.512Z,1010.69
2018-05-16T12:57:01.491Z,1010.70
2018-05-16T12:58:54.815Z,1010.71
2018-05-16T12:59:54.574Z,1010.70
2018-05-16T13:01:47.693Z,1010.65
2018-05-16T13:02:47.676Z,1010.69
2018-05-16T13:04:40.651Z,1010.67
2018-05-16T13:05:40.718Z,1010.68
2018-05-16T13:07:33.955Z,1010.64
2018-05-16T13:08:33.799Z,1010.61
2018-05-16T13:10:26.811Z,1010.58
2018-05-16T13:11:26.881Z,1010.57
2018-05-16T13:13:19.988Z,1010.56
2018-05-16T13:14:19.998Z,1010.60
2018-05-16T13:16:12.958Z,1010.53
2018-05-16T13:17:13.052Z,1010.52
2018-05-16T13:19:06.079Z,1010.50
2018-05-16T13:20:06.128Z,1010.44
2018-05-16T13:21:59.131Z,1010.44
2018-05-16T13:22:59.153Z,1010.46
2018-05-16T13:24:52.165Z,1010.45
2018-05-16T13:25:52.261Z,1010.50
2018-05-16T13:27:45.260Z,1010.47
2018-05-16T13:28:45.327Z,1010.47
2018-05-16T13:30:38.349Z,1010.41
2018-05-16T13:31:38.393Z,1010.43
2018-05-16T13:33:31.402Z,1010.41
2018-05-16T13:34:31.468Z,1010.41
2018-05-16T13:36:24.494Z,1010.35
2018-05-16T13:37:24.527Z,1010.35
2018-05-16T13:39:17.532Z,1010.31
2018-05-16T13:40:17.650Z,1010.27
2018-05-16T13:42:10.628Z,1010.22
2018-05-16T13:43:10.697Z,1010.26
2018-05-16T13:45:03.678Z,1010.15
2018-05-16T13:46:03.747Z,1010.15
2018-05-16T13:47:56.761Z,1010.15
2018-05-16T13:48:56.844Z,1010.15
2018-05-16T13:50:49.870Z,1010.08
2018-05-16T13:51:49.893Z,1010.08
2018-05-16T13:53:42.925Z,1010.04
2018-05-16T13:54:43.008Z,1010.05
2018-05-16T13:56:36.010Z,1010.00
2018-05-16T13:57:36.040Z,1009.98
2018-05-16T13:59:29.065Z,1010.06
2018-05-16T14:00:29.115Z,1010.03
2018-05-16T14:02:22.128Z,1009.96
2018-05-16T14:03:22.179Z,1009.97
2018-05-16T14:05:15.183Z,1009.90
2018-05-16T14:06:15.252Z,1009.84
2018-05-16T14:08:08.269Z,1009.66
2018-05-16T14:09:08.321Z,1009.64
2018-05-16T14:11:01.343Z,1009.60
2018-05-16T14:12:01.446Z,1009.61
2018-05-16T14:13:54.402Z,1009.53
2018-05-16T14:14:54.458Z,1009.46
2018-05-16T14:16:47.632Z,1009.44
2018-05-16T14:17:47.534Z,1009.47
2018-05-16T14:19:40.696Z,1009.46
2018-05-16T14:20:40.600Z,1009.45
2018-05-16T14:22:33.700Z,1009.42
2018-05-16T14:23:33.671Z,1009.47
2018-05-16T14:25:26.733Z,1009.59
2018-05-16T14:26:26.756Z,1009.71
2018-05-16T14:28:19.806Z,1009.74
2018-05-16T14:29:19.802Z,1009.79
2018-05-16T14:31:12.801Z,1009.80
2018-05-16T14:32:12.871Z,1009.77
2018-05-16T14:34:05.875Z,1009.72
2018-05-16T14:35:05.939Z,1009.72
2018-05-16T14:36:58.943Z,1009.71
2018-05-16T14:37:59.008Z,1009.67
2018-05-16T14:39:52.016Z,1009.59
2018-05-16T14:40:52.071Z,1009.55
2018-05-16T14:42:45.190Z,1009.59
2018-05-16T14:43:45.178Z,1009.63
2018-05-16T14:45:38.137Z,1009.61
2018-05-16T14:46:38.199Z,1009.58
2018-05-16T14:48:31.227Z,1009.60
2018-05-16T14:49:31.280Z,1009.60
2018-05-16T14:51:24.280Z,1009.62
2018-05-16T14:52:24.346Z,1009.65
2018-05-16T14:54:17.360Z,1009.56
2018-05-16T14:55:17.416Z,1009.56
2018-05-16T14:57:10.426Z,1009.48
2018-05-16T14:58:10.484Z,1009.45
2018-05-16T15:00:03.494Z,1009.45
2018-05-16T15:01:03.553Z,1009.46
2018-05-16T15:02:56.573Z,1009.40
2018-05-16T15:03:56.700Z,1009.41
2018-05-16T15:05:49.642Z,1009.37
2018-05-16T15:06:49.716Z,1009.34
2018-05-16T15:08:42.718Z,1009.39
2018-05-16T15:09:42.773Z,1009.40
2018-05-16T15:11:35.788Z,1009.36
2018-05-16T15:12:35.854Z,1009.35
2018-05-16T15:14:28.862Z,1009.37
2018-05-16T15:15:28.923Z,1009.39
2018-05-16T15:17:21.920Z,1009.45
2018-05-16T15:18:21.988Z,1009.45
2018-05-16T15:20:15.035Z,1009.44
2018-05-16T15:21:15.084Z,1009.41
2018-05-16T15:23:08.070Z,1009.43
2018-05-16T15:24:08.134Z,1009.52
2018-05-16T15:26:01.212Z,1009.37
2018-05-16T15:27:01.217Z,1009.42
2018-05-16T15:28:54.233Z,1009.41
2018-05-16T15:29:54.278Z,1009.42
2018-05-16T15:31:47.281Z,1009.47
2018-05-16T15:32:47.343Z,1009.47
2018-05-16T15:34:40.351Z,1009.47
2018-05-16T15:35:40.410Z,1009.46
2018-05-16T15:37:33.413Z,1009.49
2018-05-16T15:38:33.486Z,1009.50
2018-05-16T15:40:26.507Z,1009.56
2018-05-16T15:41:26.566Z,1009.60
2018-05-16T15:43:19.564Z,1009.65
2018-05-16T15:44:19.631Z,1009.70
2018-05-16T15:46:12.638Z,1009.77
2018-05-16T15:47:12.698Z,1009.76
2018-05-16T15:49:06.222Z,1009.79
2018-05-16T15:50:06.271Z,1009.88
2018-05-16T15:51:59.796Z,1009.80
2018-05-16T15:52:59.845Z,1009.86
2018-05-16T15:54:53.361Z,1009.81
2018-05-16T15:55:53.419Z,1009.85
2018-05-16T15:57:46.922Z,1009.95
2018-05-16T15:58:46.995Z,1010.02
2018-05-16T16:00:40.007Z,1010.20
2018-05-16T16:01:40.063Z,1010.20
2018-05-16T16:03:33.059Z,1010.32
2018-05-16T16:04:33.131Z,1010.39
2018-05-16T16:06:26.132Z,1010.42
2018-05-16T16:07:26.195Z,1010.46
2018-05-16T16:09:19.220Z,1010.51
2018-05-16T16:10:19.286Z,1010.55
2018-05-16T16:12:12.297Z,1010.61
2018-05-16T16:13:12.358Z,1010.63
2018-05-16T16:15:05.355Z,1010.67
2018-05-16T16:16:05.422Z,1010.64
2018-05-16T16:17:58.446Z,1010.70
2018-05-16T16:18:58.508Z,1010.75
2018-05-16T16:20:51.518Z,1010.76
2018-05-16T16:21:51.577Z,1010.76
2018-05-16T16:23:44.580Z,1010.79
2018-05-16T16:24:44.644Z,1010.77
2018-05-16T16:26:37.649Z,1010.73
2018-05-16T16:27:37.706Z,1010.74
2018-05-16T16:29:30.708Z,1010.75
2018-05-16T16:30:30.764Z,1010.70
2018-05-16T16:32:23.781Z,1010.68
2018-05-16T16:33:23.839Z,1010.67
2018-05-16T16:35:16.836Z,1010.74
2018-05-16T16:36:16.904Z,1010.72
2018-05-16T16:38:09.906Z,1010.74
2018-05-16T16:39:10.026Z,1010.68
2018-05-16T16:41:02.971Z,1010.65
2018-05-16T16:42:03.035Z,1010.62
2018-05-16T16:43:56.051Z,1010.62
2018-05-16T16:44:56.191Z,1010.57
2018-05-16T16:46:49.121Z,1010.58
2018-05-16T16:47:49.177Z,1010.57
2018-05-16T16:49:42.175Z,1010.61
2018-05-16T16:50:42.244Z,1010.62
2018-05-16T16:52:35.250Z,1010.63
2018-05-16T16:53:35.309Z,1010.61
2018-05-16T16:55:28.308Z,1010.64
2018-05-16T16:56:28.380Z,1010.62
2018-05-16T16:58:21.383Z,1010.68
2018-05-16T16:59:21.444Z,1010.71
2018-05-16T17:01:14.445Z,1010.72
2018-05-16T17:02:14.516Z,1010.72
2018-05-16T17:04:07.512Z,1010.72
2018-05-16T17:05:07.574Z,1010.81
2018-05-16T17:07:00.596Z,1010.81
2018-05-16T17:08:00.637Z,1010.86
2018-05-16T17:09:53.643Z,1010.82
2018-05-16T17:10:53.708Z,1010.89
2018-05-16T17:12:46.731Z,1010.95
2018-05-16T17:13:46.780Z,1010.96
2018-05-16T17:15:39.784Z,1010.93
2018-05-16T17:16:39.849Z,1011.04
2018-05-16T17:18:32.854Z,1010.97
2018-05-16T17:19:32.916Z,1011.04
2018-05-16T17:21:25.915Z,1011.03
2018-05-16T17:22:25.978Z,1010.98
2018-05-16T17:24:18.985Z,1011.00
2018-05-16T17:25:19.050Z,1011.05
2018-05-16T17:27:12.058Z,1011.05